sensor_id;sensor_type;location;lat;lon;timestamp;pressure;altitude;pressure_sealevel;temperature;humidity
46007;BME280;31738;50.188;8.524;2023-07-29T00:00:42;98182.16;;;20.70;94.99
46007;BME280;31738;50.188;8.524;2023-07-29T00:03:08;98173.63;;;20.72;94.99
46007;BME280;31738;50.188;8.524;2023-07-29T00:05:34;98168.97;;;20.72;94.72
46007;BME280;31738;50.188;8.524;2023-07-29T00:08:00;98168.16;;;20.72;95.03
46007;BME280;31738;50.188;8.524;2023-07-29T00:10:26;98166.25;;;20.72;94.91
46007;BME280;31738;50.188;8.524;2023-07-29T00:12:51;98156.47;;;20.71;94.76
46007;BME280;31738;50.188;8.524;2023-07-29T00:15:17;98159.19;;;20.71;95.00
46007;BME280;31738;50.188;8.524;2023-07-29T00:17:42;98159.53;;;20.70;94.86
46007;BME280;31738;50.188;8.524;2023-07-29T00:20:08;98154.09;;;20.70;94.60
46007;BME280;31738;50.188;8.524;2023-07-29T00:22:33;98161.50;;;20.69;94.47
46007;BME280;31738;50.188;8.524;2023-07-29T00:24:59;98162.63;;;20.68;94.73
46007;BME280;31738;50.188;8.524;2023-07-29T00:27:25;98150.16;;;20.67;94.55
46007;BME280;31738;50.188;8.524;2023-07-29T00:29:51;98149.34;;;20.67;94.71
46007;BME280;31738;50.188;8.524;2023-07-29T00:32:16;98148.56;;;20.66;94.87
46007;BME280;31738;50.188;8.524;2023-07-29T00:34:44;98134.94;;;20.66;94.92
46007;BME280;31738;50.188;8.524;2023-07-29T00:37:10;98140.41;;;20.66;94.58
46007;BME280;31738;50.188;8.524;2023-07-29T00:39:36;98136.88;;;20.66;94.54
46007;BME280;31738;50.188;8.524;2023-07-29T00:42:03;98136.53;;;20.67;95.02
46007;BME280;31738;50.188;8.524;2023-07-29T00:44:28;98139.25;;;20.67;94.93
46007;BME280;31738;50.188;8.524;2023-07-29T00:46:54;98133.78;;;20.67;95.31
46007;BME280;31738;50.188;8.524;2023-07-29T00:49:20;98129.91;;;20.68;95.12
46007;BME280;31738;50.188;8.524;2023-07-29T00:51:46;98128.34;;;20.67;95.28
46007;BME280;31738;50.188;8.524;2023-07-29T00:54:13;98122.53;;;20.69;95.29
46007;BME280;31738;50.188;8.524;2023-07-29T00:56:40;98123.69;;;20.68;95.12
46007;BME280;31738;50.188;8.524;2023-07-29T00:59:05;98119.00;;;20.68;95.36
46007;BME280;31738;50.188;8.524;2023-07-29T01:01:31;98119.00;;;20.68;95.16
46007;BME280;31738;50.188;8.524;2023-07-29T01:03:57;98120.97;;;20.68;95.66
46007;BME280;31738;50.188;8.524;2023-07-29T01:12:12;98114.00;;;20.70;95.23
46007;BME280;31738;50.188;8.524;2023-07-29T01:14:51;98119.00;;;20.68;95.39
46007;BME280;31738;50.188;8.524;2023-07-29T01:17:23;98099.53;;;20.66;95.43
46007;BME280;31738;50.188;8.524;2023-07-29T01:20:01;98113.56;;;20.68;95.55
46007;BME280;31738;50.188;8.524;2023-07-29T01:22:36;98092.09;;;20.67;95.35
46007;BME280;31738;50.188;8.524;2023-07-29T01:25:03;98104.97;;;20.66;95.43
46007;BME280;31738;50.188;8.524;2023-07-29T01:27:29;98103.47;;;20.69;95.79
46007;BME280;31738;50.188;8.524;2023-07-29T01:29:57;98108.09;;;20.68;95.47
46007;BME280;31738;50.188;8.524;2023-07-29T01:32:37;98101.94;;;20.71;95.49
46007;BME280;31738;50.188;8.524;2023-07-29T01:37:34;98101.53;;;20.69;95.59
46007;BME280;31738;50.188;8.524;2023-07-29T01:40:00;98093.34;;;20.69;95.35
46007;BME280;31738;50.188;8.524;2023-07-29T01:42:26;98092.19;;;20.70;95.21
46007;BME280;31738;50.188;8.524;2023-07-29T01:44:52;98089.47;;;20.70;95.18
46007;BME280;31738;50.188;8.524;2023-07-29T01:47:18;98089.84;;;20.69;95.33
46007;BME280;31738;50.188;8.524;2023-07-29T01:49:43;98091.75;;;20.68;95.65
46007;BME280;31738;50.188;8.524;2023-07-29T01:52:09;98094.47;;;20.68;95.72
46007;BME280;31738;50.188;8.524;2023-07-29T01:54:34;98095.63;;;20.67;95.54
46007;BME280;31738;50.188;8.524;2023-07-29T01:57:00;98094.06;;;20.66;95.50
46007;BME280;31738;50.188;8.524;2023-07-29T02:02:49;98091.16;;;20.59;96.03
46007;BME280;31738;50.188;8.524;2023-07-29T02:05:15;98085.34;;;20.61;96.01
46007;BME280;31738;50.188;8.524;2023-07-29T02:07:40;98081.16;;;20.63;95.74
46007;BME280;31738;50.188;8.524;2023-07-29T02:10:06;98075.69;;;20.63;95.84
46007;BME280;31738;50.188;8.524;2023-07-29T02:12:32;98076.09;;;20.65;95.89
46007;BME280;31738;50.188;8.524;2023-07-29T02:14:57;98067.53;;;20.63;95.89
46007;BME280;31738;50.188;8.524;2023-07-29T02:17:23;98072.16;;;20.63;96.15
46007;BME280;31738;50.188;8.524;2023-07-29T02:19:48;98080.34;;;20.63;95.74
46007;BME280;31738;50.188;8.524;2023-07-29T02:22:15;98072.97;;;20.63;96.20
46007;BME280;31738;50.188;8.524;2023-07-29T02:24:41;98072.97;;;20.63;95.99
46007;BME280;31738;50.188;8.524;2023-07-29T02:27:06;98071.38;;;20.62;96.05
46007;BME280;31738;50.188;8.524;2023-07-29T02:29:32;98069.09;;;20.64;96.10
46007;BME280;31738;50.188;8.524;2023-07-29T02:31:59;98063.63;;;20.64;95.92
46007;BME280;31738;50.188;8.524;2023-07-29T02:34:24;98057.03;;;20.65;96.47
46007;BME280;31738;50.188;8.524;2023-07-29T02:36:50;98051.94;;;20.64;95.93
46007;BME280;31738;50.188;8.524;2023-07-29T02:39:15;98058.19;;;20.64;96.44
46007;BME280;31738;50.188;8.524;2023-07-29T02:41:41;98058.19;;;20.64;96.21
46007;BME280;31738;50.188;8.524;2023-07-29T02:44:06;98056.25;;;20.65;96.20
46007;BME280;31738;50.188;8.524;2023-07-29T02:46:32;98062.84;;;20.64;96.52
46007;BME280;31738;50.188;8.524;2023-07-29T02:48:57;98049.22;;;20.64;96.38
46007;BME280;31738;50.188;8.524;2023-07-29T02:51:23;98052.72;;;20.64;96.78
46007;BME280;31738;50.188;8.524;2023-07-29T02:53:48;98047.63;;;20.63;96.88
46007;BME280;31738;50.188;8.524;2023-07-29T02:56:14;98048.44;;;20.63;96.93
46007;BME280;31738;50.188;8.524;2023-07-29T02:58:39;98036.38;;;20.64;96.79
46007;BME280;31738;50.188;8.524;2023-07-29T03:01:06;98042.63;;;20.65;96.76
46007;BME280;31738;50.188;8.524;2023-07-29T03:03:32;98032.50;;;20.65;96.92
46007;BME280;31738;50.188;8.524;2023-07-29T03:06:04;98023.19;;;20.66;97.32
46007;BME280;31738;50.188;8.524;2023-07-29T03:08:30;98013.00;;;20.63;97.24
46007;BME280;31738;50.188;8.524;2023-07-29T03:10:56;98013.41;;;20.65;97.14
46007;BME280;31738;50.188;8.524;2023-07-29T03:13:22;98007.97;;;20.65;97.48
46007;BME280;31738;50.188;8.524;2023-07-29T03:15:47;97999.03;;;20.65;97.43
46007;BME280;31738;50.188;8.524;2023-07-29T03:18:14;98006.75;;;20.63;97.46
46007;BME280;31738;50.188;8.524;2023-07-29T03:20:39;98009.13;;;20.64;97.49
46007;BME280;31738;50.188;8.524;2023-07-29T03:23:05;98007.19;;;20.65;97.49
46007;BME280;31738;50.188;8.524;2023-07-29T03:25:31;98009.13;;;20.64;97.82
46007;BME280;31738;50.188;8.524;2023-07-29T03:27:56;98004.47;;;20.65;97.91
46007;BME280;31738;50.188;8.524;2023-07-29T03:30:22;98011.84;;;20.64;97.66
46007;BME280;31738;50.188;8.524;2023-07-29T03:32:49;97998.22;;;20.64;97.36
46007;BME280;31738;50.188;8.524;2023-07-29T03:35:15;97996.66;;;20.63;97.81
46007;BME280;31738;50.188;8.524;2023-07-29T03:37:41;98006.41;;;20.64;97.73
46007;BME280;31738;50.188;8.524;2023-07-29T03:40:07;97998.22;;;20.64;97.66
46007;BME280;31738;50.188;8.524;2023-07-29T03:42:34;97992.78;;;20.64;97.65
46007;BME280;31738;50.188;8.524;2023-07-29T03:45:00;98004.84;;;20.63;98.08
46007;BME280;31738;50.188;8.524;2023-07-29T03:47:26;98010.28;;;20.63;97.44
46007;BME280;31738;50.188;8.524;2023-07-29T03:49:53;98011.41;;;20.62;97.95
46007;BME280;31738;50.188;8.524;2023-07-29T03:52:21;97998.13;;;20.61;97.79
46007;BME280;31738;50.188;8.524;2023-07-29T03:54:46;97995.78;;;20.59;97.94
46007;BME280;31738;50.188;8.524;2023-07-29T03:57:11;97988.75;;;20.58;98.11
46007;BME280;31738;50.188;8.524;2023-07-29T03:59:37;97993.41;;;20.58;97.73
46007;BME280;31738;50.188;8.524;2023-07-29T04:02:03;97994.19;;;20.58;97.78
46007;BME280;31738;50.188;8.524;2023-07-29T04:04:29;97994.19;;;20.58;98.09
46007;BME280;31738;50.188;8.524;2023-07-29T04:06:55;97995.78;;;20.59;97.70
46007;BME280;31738;50.188;8.524;2023-07-29T04:09:20;97998.50;;;20.59;98.18
46007;BME280;31738;50.188;8.524;2023-07-29T04:11:46;97990.69;;;20.58;98.18
46007;BME280;31738;50.188;8.524;2023-07-29T04:14:11;97992.63;;;20.57;98.34
46007;BME280;31738;50.188;8.524;2023-07-29T04:16:37;97997.28;;;20.57;98.02
46007;BME280;31738;50.188;8.524;2023-07-29T04:19:02;97998.09;;;20.57;98.29
46007;BME280;31738;50.188;8.524;2023-07-29T04:21:28;97993.41;;;20.58;97.96
46007;BME280;31738;50.188;8.524;2023-07-29T04:23:53;97997.72;;;20.59;98.17
46007;BME280;31738;50.188;8.524;2023-07-29T04:26:19;97985.22;;;20.58;98.25
46007;BME280;31738;50.188;8.524;2023-07-29T04:28:44;97980.56;;;20.58;98.49
46007;BME280;31738;50.188;8.524;2023-07-29T04:31:10;97973.97;;;20.59;98.35
46007;BME280;31738;50.188;8.524;2023-07-29T04:33:35;97975.13;;;20.58;98.22
46007;BME280;31738;50.188;8.524;2023-07-29T04:36:01;97974.75;;;20.60;98.17
46007;BME280;31738;50.188;8.524;2023-07-29T04:38:33;97982.59;;;20.61;98.58
46007;BME280;31738;50.188;8.524;2023-07-29T04:40:58;97974.75;;;20.60;98.18
46007;BME280;31738;50.188;8.524;2023-07-29T04:43:27;97984.16;;;20.62;98.73
46007;BME280;31738;50.188;8.524;2023-07-29T04:45:53;97980.31;;;20.63;98.32
46007;BME280;31738;50.188;8.524;2023-07-29T04:48:19;97991.97;;;20.64;98.41
46007;BME280;31738;50.188;8.524;2023-07-29T04:50:45;97981.44;;;20.62;98.55
46007;BME280;31738;50.188;8.524;2023-07-29T04:53:10;97981.88;;;20.64;98.55
46007;BME280;31738;50.188;8.524;2023-07-29T04:55:36;97976.41;;;20.64;98.73
46007;BME280;31738;50.188;8.524;2023-07-29T04:58:01;97968.69;;;20.66;98.51
46007;BME280;31738;50.188;8.524;2023-07-29T05:00:27;97970.25;;;20.67;98.25
46007;BME280;31738;50.188;8.524;2023-07-29T05:02:52;97975.00;;;20.70;98.45
46007;BME280;31738;50.188;8.524;2023-07-29T05:05:18;97978.16;;;20.72;98.77
46007;BME280;31738;50.188;8.524;2023-07-29T05:07:44;97971.56;;;20.73;98.59
46007;BME280;31738;50.188;8.524;2023-07-29T05:10:09;97963.38;;;20.73;98.23
46007;BME280;31738;50.188;8.524;2023-07-29T05:12:35;97968.47;;;20.75;98.28
46007;BME280;31738;50.188;8.524;2023-07-29T05:15:00;97973.56;;;20.76;98.58
46007;BME280;31738;50.188;8.524;2023-07-29T05:17:26;97979.00;;;20.76;98.48
46007;BME280;31738;50.188;8.524;2023-07-29T05:19:51;97979.00;;;20.76;98.26
46007;BME280;31738;50.188;8.524;2023-07-29T05:22:17;97979.81;;;20.77;98.47
46007;BME280;31738;50.188;8.524;2023-07-29T05:24:42;97983.31;;;20.77;98.51
46007;BME280;31738;50.188;8.524;2023-07-29T05:27:08;97974.00;;;20.78;98.59
46007;BME280;31738;50.188;8.524;2023-07-29T05:29:34;97974.41;;;20.80;98.51
46007;BME280;31738;50.188;8.524;2023-07-29T05:31:59;97987.72;;;20.82;98.50
46007;BME280;31738;50.188;8.524;2023-07-29T05:34:24;97977.22;;;20.84;98.51
46007;BME280;31738;50.188;8.524;2023-07-29T05:36:50;97976.09;;;20.85;98.60
46007;BME280;31738;50.188;8.524;2023-07-29T05:39:15;97980.38;;;20.86;98.27
46007;BME280;31738;50.188;8.524;2023-07-29T05:41:41;97987.03;;;20.88;98.88
46007;BME280;31738;50.188;8.524;2023-07-29T05:44:07;97999.56;;;20.89;98.63
46007;BME280;31738;50.188;8.524;2023-07-29T05:46:32;97997.59;;;20.90;98.42
46007;BME280;31738;50.188;8.524;2023-07-29T05:48:57;97991.00;;;20.91;98.65
46007;BME280;31738;50.188;8.524;2023-07-29T05:51:23;97994.94;;;20.93;98.75
46007;BME280;31738;50.188;8.524;2023-07-29T05:53:48;97994.25;;;20.96;98.78
46007;BME280;31738;50.188;8.524;2023-07-29T05:56:14;97995.91;;;21.01;98.71
46007;BME280;31738;50.188;8.524;2023-07-29T05:58:39;97996.00;;;21.04;98.98
46007;BME280;31738;50.188;8.524;2023-07-29T06:01:06;98000.00;;;21.10;98.73
46007;BME280;31738;50.188;8.524;2023-07-29T06:03:31;98009.47;;;21.16;98.68
46007;BME280;31738;50.188;8.524;2023-07-29T06:05:57;98007.59;;;21.20;98.83
46007;BME280;31738;50.188;8.524;2023-07-29T06:08:23;98002.94;;;21.21;98.50
46007;BME280;31738;50.188;8.524;2023-07-29T06:10:48;98011.13;;;21.21;98.75
46007;BME280;31738;50.188;8.524;2023-07-29T06:13:14;98022.84;;;21.21;98.62
46007;BME280;31738;50.188;8.524;2023-07-29T06:15:39;98026.69;;;21.20;98.67
46007;BME280;31738;50.188;8.524;2023-07-29T06:18:04;98021.22;;;21.20;98.36
46007;BME280;31738;50.188;8.524;2023-07-29T06:20:30;98019.66;;;21.19;98.57
46007;BME280;31738;50.188;8.524;2023-07-29T06:22:56;98018.09;;;21.18;98.52
46007;BME280;31738;50.188;8.524;2023-07-29T06:25:21;98013.78;;;21.17;98.75
46007;BME280;31738;50.188;8.524;2023-07-29T06:27:47;98006.75;;;21.16;98.51
46007;BME280;31738;50.188;8.524;2023-07-29T06:30:13;98005.53;;;21.14;98.69
46007;BME280;31738;50.188;8.524;2023-07-29T06:32:38;97999.22;;;21.10;98.53
46007;BME280;31738;50.188;8.524;2023-07-29T06:35:04;97983.56;;;21.07;98.97
46007;BME280;31738;50.188;8.524;2023-07-29T06:37:30;97996.34;;;21.03;98.78
46007;BME280;31738;50.188;8.524;2023-07-29T06:39:55;97997.44;;;20.98;98.71
46007;BME280;31738;50.188;8.524;2023-07-29T06:42:20;98010.63;;;20.96;98.80
46007;BME280;31738;50.188;8.524;2023-07-29T06:44:46;98013.69;;;20.95;98.52
46007;BME280;31738;50.188;8.524;2023-07-29T06:47:12;98023.00;;;20.94;98.38
46007;BME280;31738;50.188;8.524;2023-07-29T06:49:37;98024.50;;;20.91;98.45
46007;BME280;31738;50.188;8.524;2023-07-29T06:52:03;98029.53;;;20.89;98.35
46007;BME280;31738;50.188;8.524;2023-07-29T06:54:28;98032.28;;;20.89;98.71
46007;BME280;31738;50.188;8.524;2023-07-29T06:56:54;98030.66;;;20.88;98.88
46007;BME280;31738;50.188;8.524;2023-07-29T06:59:20;98025.22;;;20.88;98.70
46007;BME280;31738;50.188;8.524;2023-07-29T07:01:46;98028.66;;;20.85;98.33
46007;BME280;31738;50.188;8.524;2023-07-29T07:04:11;98039.16;;;20.83;98.64
46007;BME280;31738;50.188;8.524;2023-07-29T07:06:37;98030.53;;;20.81;98.39
46007;BME280;31738;50.188;8.524;2023-07-29T07:09:02;98027.00;;;20.81;98.42
46007;BME280;31738;50.188;8.524;2023-07-29T07:11:28;98006.34;;;20.80;98.41
46007;BME280;31738;50.188;8.524;2023-07-29T07:13:53;98000.09;;;20.79;98.65
46007;BME280;31738;50.188;8.524;2023-07-29T07:16:19;98002.38;;;20.77;98.20
46007;BME280;31738;50.188;8.524;2023-07-29T07:18:44;98016.91;;;20.81;98.72
46007;BME280;31738;50.188;8.524;2023-07-29T07:21:10;98017.34;;;20.83;98.86
46007;BME280;31738;50.188;8.524;2023-07-29T07:23:35;98032.97;;;20.86;98.62
46007;BME280;31738;50.188;8.524;2023-07-29T07:26:01;98044.75;;;20.90;99.01
46007;BME280;31738;50.188;8.524;2023-07-29T07:28:27;98057.31;;;20.95;98.64
46007;BME280;31738;50.188;8.524;2023-07-29T07:30:52;98048.09;;;20.99;98.98
46007;BME280;31738;50.188;8.524;2023-07-29T07:33:18;98050.09;;;21.02;98.65
46007;BME280;31738;50.188;8.524;2023-07-29T07:35:43;98050.53;;;21.04;98.57
46007;BME280;31738;50.188;8.524;2023-07-29T07:38:09;98056.41;;;21.06;98.65
46007;BME280;31738;50.188;8.524;2023-07-29T07:40:35;98058.44;;;21.09;98.89
46007;BME280;31738;50.188;8.524;2023-07-29T07:43:01;98057.72;;;21.12;98.81
46007;BME280;31738;50.188;8.524;2023-07-29T07:45:26;98062.03;;;21.13;98.66
46007;BME280;31738;50.188;8.524;2023-07-29T07:47:52;98058.22;;;21.18;98.36
46007;BME280;31738;50.188;8.524;2023-07-29T07:50:21;98063.75;;;21.21;98.65
46007;BME280;31738;50.188;8.524;2023-07-29T07:52:46;98055.25;;;21.26;98.55
46007;BME280;31738;50.188;8.524;2023-07-29T07:55:12;98053.41;;;21.30;98.74
46007;BME280;31738;50.188;8.524;2023-07-29T07:57:37;98051.09;;;21.32;98.32
46007;BME280;31738;50.188;8.524;2023-07-29T08:00:03;98047.31;;;21.37;98.51
46007;BME280;31738;50.188;8.524;2023-07-29T08:02:38;98050.53;;;21.42;98.49
46007;BME280;31738;50.188;8.524;2023-07-29T08:05:04;98059.63;;;21.50;98.50
46007;BME280;31738;50.188;8.524;2023-07-29T08:07:29;98066.38;;;21.56;98.35
46007;BME280;31738;50.188;8.524;2023-07-29T08:09:55;98061.84;;;21.63;98.08
46007;BME280;31738;50.188;8.524;2023-07-29T08:12:20;98061.13;;;21.66;98.40
46007;BME280;31738;50.188;8.524;2023-07-29T08:14:45;98071.31;;;21.69;98.67
46007;BME280;31738;50.188;8.524;2023-07-29T08:17:11;98064.88;;;21.77;98.28
46007;BME280;31738;50.188;8.524;2023-07-29T08:19:36;98059.22;;;21.89;98.77
46007;BME280;31738;50.188;8.524;2023-07-29T08:22:03;98054.09;;;22.07;98.64
46007;BME280;31738;50.188;8.524;2023-07-29T08:24:29;98045.44;;;22.28;98.49
46007;BME280;31738;50.188;8.524;2023-07-29T08:26:54;98058.22;;;22.46;97.73
46007;BME280;31738;50.188;8.524;2023-07-29T08:29:19;98054.84;;;22.53;97.57
46007;BME280;31738;50.188;8.524;2023-07-29T08:31:45;98058.03;;;22.58;97.29
46007;BME280;31738;50.188;8.524;2023-07-29T08:34:10;98062.00;;;22.61;96.19
46007;BME280;31738;50.188;8.524;2023-07-29T08:36:36;98062.00;;;22.61;96.09
46007;BME280;31738;50.188;8.524;2023-07-29T08:39:01;98066.31;;;22.62;95.73
46007;BME280;31738;50.188;8.524;2023-07-29T08:41:37;98070.31;;;22.68;95.87
46007;BME280;31738;50.188;8.524;2023-07-29T08:44:21;98071.47;;;22.67;95.81
46007;BME280;31738;50.188;8.524;2023-07-29T08:46:48;98080.78;;;22.62;95.90
46007;BME280;31738;50.188;8.524;2023-07-29T08:49:14;98076.34;;;22.80;96.32
46007;BME280;31738;50.188;8.524;2023-07-29T08:51:42;98065.81;;;23.08;96.52
46007;BME280;31738;50.188;8.524;2023-07-29T08:54:08;98070.03;;;23.32;95.46
46007;BME280;31738;50.188;8.524;2023-07-29T08:56:34;98071.78;;;23.47;95.41
46007;BME280;31738;50.188;8.524;2023-07-29T08:59:00;98080.84;;;23.51;94.19
46007;BME280;31738;50.188;8.524;2023-07-29T09:01:27;98084.22;;;23.41;92.95
46007;BME280;31738;50.188;8.524;2023-07-29T09:03:53;98088.78;;;23.30;92.88
46007;BME280;31738;50.188;8.524;2023-07-29T09:06:19;98085.59;;;23.24;93.45
46007;BME280;31738;50.188;8.524;2023-07-29T09:08:48;98089.56;;;23.30;93.15
46007;BME280;31738;50.188;8.524;2023-07-29T09:11:15;98083.06;;;23.42;92.13
46007;BME280;31738;50.188;8.524;2023-07-29T09:13:43;98082.81;;;23.54;92.05
46007;BME280;31738;50.188;8.524;2023-07-29T09:16:13;98090.03;;;23.69;91.44
46007;BME280;31738;50.188;8.524;2023-07-29T09:18:38;98090.16;;;23.80;90.44
46007;BME280;31738;50.188;8.524;2023-07-29T09:21:04;98091.88;;;23.95;91.13
46007;BME280;31738;50.188;8.524;2023-07-29T09:23:42;98099.81;;;24.03;89.11
46007;BME280;31738;50.188;8.524;2023-07-29T09:26:09;98113.00;;;23.94;89.12
46007;BME280;31738;50.188;8.524;2023-07-29T09:28:36;98110.78;;;24.03;89.04
46007;BME280;31738;50.188;8.524;2023-07-29T09:31:02;98121.06;;;24.13;88.03
46007;BME280;31738;50.188;8.524;2023-07-29T09:33:35;98127.91;;;24.33;87.44
46007;BME280;31738;50.188;8.524;2023-07-29T09:36:08;98121.38;;;24.48;87.79
46007;BME280;31738;50.188;8.524;2023-07-29T09:38:34;98119.47;;;24.52;87.36
46007;BME280;31738;50.188;8.524;2023-07-29T09:40:59;98127.69;;;24.56;87.30
46007;BME280;31738;50.188;8.524;2023-07-29T09:43:28;98127.66;;;24.49;86.15
46007;BME280;31738;50.188;8.524;2023-07-29T09:45:54;98132.72;;;24.43;86.35
46007;BME280;31738;50.188;8.524;2023-07-29T09:48:22;98130.81;;;24.54;86.76
46007;BME280;31738;50.188;8.524;2023-07-29T09:50:48;98136.41;;;24.65;86.94
46007;BME280;31738;50.188;8.524;2023-07-29T09:53:14;98136.50;;;24.72;85.71
46007;BME280;31738;50.188;8.524;2023-07-29T09:55:40;98138.06;;;24.69;84.56
46007;BME280;31738;50.188;8.524;2023-07-29T09:58:11;98143.50;;;24.66;84.42
46007;BME280;31738;50.188;8.524;2023-07-29T10:00:37;98138.00;;;24.66;85.23
46007;BME280;31738;50.188;8.524;2023-07-29T10:03:04;98134.66;;;24.90;85.00
46007;BME280;31738;50.188;8.524;2023-07-29T10:05:30;98128.06;;;24.98;82.85
46007;BME280;31738;50.188;8.524;2023-07-29T10:07:56;98125.72;;;25.00;83.17
46007;BME280;31738;50.188;8.524;2023-07-29T10:10:22;98138.38;;;25.15;82.55
46007;BME280;31738;50.188;8.524;2023-07-29T10:12:48;98138.13;;;25.38;81.80
46007;BME280;31738;50.188;8.524;2023-07-29T10:15:14;98142.91;;;25.55;80.56
46007;BME280;31738;50.188;8.524;2023-07-29T10:17:40;98144.09;;;25.54;78.58
46007;BME280;31738;50.188;8.524;2023-07-29T10:20:08;98141.72;;;25.56;79.74
46007;BME280;31738;50.188;8.524;2023-07-29T10:22:42;98139.09;;;25.77;79.98
46007;BME280;31738;50.188;8.524;2023-07-29T10:25:18;98144.19;;;25.82;78.74
46007;BME280;31738;50.188;8.524;2023-07-29T10:28:00;98167.28;;;25.67;77.77
46007;BME280;31738;50.188;8.524;2023-07-29T10:30:29;98165.22;;;25.43;78.94
46007;BME280;31738;50.188;8.524;2023-07-29T10:32:58;98164.31;;;25.28;78.99
46007;BME280;31738;50.188;8.524;2023-07-29T10:35:24;98167.34;;;25.12;78.92
46007;BME280;31738;50.188;8.524;2023-07-29T10:37:51;98169.69;;;25.07;79.57
46007;BME280;31738;50.188;8.524;2023-07-29T10:40:18;98154.78;;;25.04;79.42
46007;BME280;31738;50.188;8.524;2023-07-29T10:43:03;98152.41;;;25.06;80.88
46007;BME280;31738;50.188;8.524;2023-07-29T10:45:38;98146.16;;;25.09;81.29
46007;BME280;31738;50.188;8.524;2023-07-29T10:50:36;98155.53;;;25.05;80.50
46007;BME280;31738;50.188;8.524;2023-07-29T10:53:01;98150.94;;;25.19;81.15
46007;BME280;31738;50.188;8.524;2023-07-29T10:55:35;98151.06;;;25.37;79.18
46007;BME280;31738;50.188;8.524;2023-07-29T10:58:16;98158.13;;;25.35;78.29
46007;BME280;31738;50.188;8.524;2023-07-29T11:00:44;98160.47;;;25.36;77.66
46007;BME280;31738;50.188;8.524;2023-07-29T11:03:12;98170.75;;;25.50;75.89
46007;BME280;31738;50.188;8.524;2023-07-29T11:08:21;98175.66;;;25.95;74.23
46007;BME280;31738;50.188;8.524;2023-07-29T11:11:06;98184.38;;;26.14;73.49
46007;BME280;31738;50.188;8.524;2023-07-29T11:13:36;98181.25;;;26.19;72.80
46007;BME280;31738;50.188;8.524;2023-07-29T11:16:03;98175.00;;;26.33;72.69
46007;BME280;31738;50.188;8.524;2023-07-29T11:18:31;98180.94;;;26.49;71.18
46007;BME280;31738;50.188;8.524;2023-07-29T11:20:57;98201.75;;;26.50;69.68
46007;BME280;31738;50.188;8.524;2023-07-29T11:23:36;98212.75;;;26.39;68.22
46007;BME280;31738;50.188;8.524;2023-07-29T11:26:03;98197.78;;;26.37;68.31
46007;BME280;31738;50.188;8.524;2023-07-29T11:28:30;98196.25;;;26.46;69.47
46007;BME280;31738;50.188;8.524;2023-07-29T11:30:56;98204.94;;;26.66;68.26
46007;BME280;31738;50.188;8.524;2023-07-29T11:33:24;98203.78;;;26.85;66.11
46007;BME280;31738;50.188;8.524;2023-07-29T11:35:50;98205.72;;;26.98;66.36
46007;BME280;31738;50.188;8.524;2023-07-29T11:38:17;98226.19;;;26.97;66.35
46007;BME280;31738;50.188;8.524;2023-07-29T11:40:44;98213.63;;;26.96;65.32
46007;BME280;31738;50.188;8.524;2023-07-29T11:43:18;98223.84;;;26.99;64.64
46007;BME280;31738;50.188;8.524;2023-07-29T11:45:44;98232.88;;;26.89;65.45
46007;BME280;31738;50.188;8.524;2023-07-29T11:48:10;98215.97;;;26.84;66.55
46007;BME280;31738;50.188;8.524;2023-07-29T11:50:35;98216.78;;;26.84;66.96
46007;BME280;31738;50.188;8.524;2023-07-29T11:53:02;98212.06;;;26.81;67.61
46007;BME280;31738;50.188;8.524;2023-07-29T11:55:28;98206.53;;;26.74;65.50
46007;BME280;31738;50.188;8.524;2023-07-29T11:57:54;98214.41;;;26.68;66.42
46007;BME280;31738;50.188;8.524;2023-07-29T12:00:20;98208.09;;;26.82;66.26
46007;BME280;31738;50.188;8.524;2023-07-29T12:02:47;98203.00;;;27.02;68.15
46007;BME280;31738;50.188;8.524;2023-07-29T12:05:14;98206.91;;;27.22;65.59
46007;BME280;31738;50.188;8.524;2023-07-29T12:07:42;98218.34;;;27.38;63.54
46007;BME280;31738;50.188;8.524;2023-07-29T12:10:09;98210.44;;;27.43;63.27
46007;BME280;31738;50.188;8.524;2023-07-29T12:12:48;98219.09;;;27.59;63.25
46007;BME280;31738;50.188;8.524;2023-07-29T12:15:22;98224.56;;;27.66;61.82
46007;BME280;31738;50.188;8.524;2023-07-29T12:17:48;98230.88;;;27.63;60.71
46007;BME280;31738;50.188;8.524;2023-07-29T12:20:13;98240.75;;;27.61;60.69
46007;BME280;31738;50.188;8.524;2023-07-29T12:22:39;98246.25;;;27.57;60.18
46007;BME280;31738;50.188;8.524;2023-07-29T12:25:05;98227.31;;;27.66;60.69
46007;BME280;31738;50.188;8.524;2023-07-29T12:27:31;98232.41;;;27.78;60.31
46007;BME280;31738;50.188;8.524;2023-07-29T12:29:57;98220.56;;;27.95;61.44
46007;BME280;31738;50.188;8.524;2023-07-29T12:32:25;98220.50;;;28.02;59.70
46007;BME280;31738;50.188;8.524;2023-07-29T12:34:53;98226.81;;;28.06;59.69
46007;BME280;31738;50.188;8.524;2023-07-29T12:37:19;98221.31;;;28.06;59.75
46007;BME280;31738;50.188;8.524;2023-07-29T12:39:44;98234.75;;;27.97;58.11
46007;BME280;31738;50.188;8.524;2023-07-29T12:42:10;98242.22;;;27.93;57.75
46007;BME280;31738;50.188;8.524;2023-07-29T12:44:38;98246.13;;;28.03;56.56
46007;BME280;31738;50.188;8.524;2023-07-29T12:47:05;98240.25;;;27.97;57.64
46007;BME280;31738;50.188;8.524;2023-07-29T12:49:31;98242.66;;;27.74;57.48
46007;BME280;31738;50.188;8.524;2023-07-29T12:52:00;98246.66;;;27.52;57.90
46007;BME280;31738;50.188;8.524;2023-07-29T12:54:26;98248.66;;;27.34;57.37
46007;BME280;31738;50.188;8.524;2023-07-29T12:56:51;98252.94;;;27.21;57.66
46007;BME280;31738;50.188;8.524;2023-07-29T12:59:17;98248.63;;;27.13;57.60
46007;BME280;31738;50.188;8.524;2023-07-29T13:01:43;98244.28;;;27.02;58.73
46007;BME280;31738;50.188;8.524;2023-07-29T13:04:09;98235.22;;;27.01;59.87
46007;BME280;31738;50.188;8.524;2023-07-29T13:06:35;98239.56;;;26.99;59.37
46007;BME280;31738;50.188;8.524;2023-07-29T13:09:01;98247.06;;;26.95;58.97
46007;BME280;31738;50.188;8.524;2023-07-29T13:11:26;98243.88;;;26.89;58.84
46007;BME280;31738;50.188;8.524;2023-07-29T13:13:51;98243.91;;;26.82;58.56